Time;durP1;ratioP1;P1;durP2;ratioP2;P2;SDS_P1;SDS_P2;PMS_P1;PMS_P2;Temp;Humidity;BMP_temperature;BMP_pressure;BME280_temperature;BME280_humidity;BME280_pressure;Samples;Min_cycle;Max_cycle;Signal;HPM_P1;HPM_P2
2023/04/21 00:01:33;;;;;;;36.22;22.35;;;7.60;99.90;;;-144.05;76.56;56908.31;5093876;28;20145;-77
2023/04/21 00:03:59;;;;;;;38.65;22.67;;;7.60;99.90;;;-144.05;76.27;56880.69;5093624;28;20509;-77
2023/04/21 00:06:25;;;;;;;39.72;23.20;;;7.60;99.90;;;-144.05;75.82;56880.69;5093849;28;20028;-77
2023/04/21 00:08:51;;;;;;;37.38;22.20;;;7.60;99.90;;;-144.05;75.59;56895.56;5075946;28;20043;-77
2023/04/21 00:11:17;;;;;;;37.92;22.77;;;7.60;99.90;;;-144.05;75.30;56870.06;5093101;28;20044;-77
2023/04/21 00:13:44;;;;;;;39.97;22.55;;;7.60;99.90;;;-144.05;75.81;56884.94;5093783;28;20044;-77
2023/04/21 00:16:10;;;;;;;36.42;21.67;;;7.60;99.90;;;-144.05;76.07;56870.06;5094281;28;20410;-77
2023/04/21 00:18:36;;;;;;;36.97;22.33;;;7.60;99.90;;;-144.05;75.93;56872.19;5094080;28;20055;-77
2023/04/21 00:21:02;;;;;;;38.45;22.10;;;7.60;99.90;;;-144.05;75.90;56865.81;5094093;28;20032;-76
2023/04/21 00:23:28;;;;;;;35.92;23.10;;;7.60;99.90;;;-144.05;76.27;56874.31;5093589;28;20050;-78
2023/04/21 00:25:54;;;;;;;38.42;23.25;;;7.60;99.90;;;-144.05;76.13;56874.31;5093699;28;20024;-77
2023/04/21 00:28:20;;;;;;;40.42;23.77;;;7.60;99.90;;;-144.05;76.56;56863.69;5076076;28;20447;-77
2023/04/21 00:30:45;;;;;;;38.72;23.23;;;7.60;99.90;;;-144.05;76.76;56865.81;5094235;28;20028;-76
2023/04/21 00:33:11;;;;;;;37.70;22.88;;;7.60;99.90;;;-144.05;76.75;56895.56;5094225;28;20172;-78
2023/04/21 00:35:37;;;;;;;38.35;23.30;;;7.60;99.90;;;-144.05;76.79;56859.47;5093726;28;20036;-77
2023/04/21 00:38:03;;;;;;;42.72;24.35;;;7.60;99.90;;;-144.05;77.45;56889.19;5075318;28;20039;-77
2023/04/21 00:40:29;;;;;;;39.10;23.73;;;7.60;99.90;;;-144.05;77.77;56878.56;5093536;28;20447;-77
2023/04/21 00:42:54;;;;;;;38.80;24.70;;;7.60;99.90;;;-144.05;78.23;56857.34;5093058;28;20039;-77
2023/04/21 00:45:20;;;;;;;40.90;23.15;;;7.60;99.90;;;-144.05;78.34;56887.06;5093111;28;20055;-77
2023/04/21 00:47:46;;;;;;;39.33;23.67;;;7.60;99.90;;;-144.05;78.40;56910.44;5093377;28;20040;-77
2023/04/21 00:50:12;;;;;;;47.80;24.85;;;7.60;99.90;;;-144.05;78.27;56880.69;5093264;28;20032;-77
2023/04/21 00:52:42;;;;;;;41.95;25.60;;;7.60;99.90;;;-144.05;78.01;56895.56;5092977;28;20027;-77
2023/04/21 00:55:09;;;;;;;39.53;22.85;;;7.60;99.90;;;-144.05;78.37;56867.94;5092655;28;20121;-75
2023/04/21 00:57:39;;;;;;;40.63;25.13;;;7.60;99.90;;;-144.05;78.56;56878.56;5092585;28;20034;-76
2023/04/21 01:00:07;;;;;;;43.75;25.05;;;7.60;99.90;;;-144.05;78.73;56887.06;5092928;28;20024;-76
2023/04/21 01:02:37;;;;;;;40.28;24.45;;;7.60;99.90;;;-144.05;78.13;56908.31;5092332;28;20027;-77
2023/04/21 01:05:07;;;;;;;42.85;25.02;;;7.60;99.90;;;-144.05;78.31;56863.69;5092161;28;20032;-77
2023/04/21 01:07:34;;;;;;;47.20;25.92;;;7.70;99.90;;;-144.05;78.35;56891.31;5092869;28;20031;-76
2023/04/21 01:10:02;;;;;;;42.00;23.75;;;7.60;99.90;;;-144.05;77.90;56861.56;5096802;28;20426;-75
2023/04/21 01:12:28;;;;;;;43.33;24.00;;;7.70;99.90;;;-144.05;78.00;56876.44;5109094;28;20035;-75
2023/04/21 01:14:54;;;;;;;43.92;25.23;;;7.70;99.90;;;-144.05;77.96;56878.56;5100938;28;20415;-77
2023/04/21 01:17:19;;;;;;;46.28;25.35;;;7.70;99.90;;;-144.05;78.63;56882.81;5094386;28;20420;-77
2023/04/21 01:19:46;;;;;;;42.08;25.83;;;7.70;99.90;;;-144.05;78.06;56895.56;5103931;28;20039;-76
2023/04/21 01:22:14;;;;;;;43.85;26.13;;;7.70;99.90;;;-144.05;77.75;56882.81;5107386;28;20482;-77
2023/04/21 01:24:43;;;;;;;46.30;25.70;;;7.80;99.90;;;-144.05;77.59;56857.34;5096496;28;20092;-77
2023/04/21 01:27:17;;;;;;;43.38;24.77;;;7.80;99.90;;;-144.05;78.12;56899.81;5093753;28;20080;-75
2023/04/21 01:29:48;;;;;;;44.60;25.13;;;7.70;99.90;;;-144.05;78.26;56906.19;5093288;28;20028;-77
2023/04/21 01:32:20;;;;;;;49.22;26.30;;;7.80;99.90;;;-144.05;78.30;56889.19;5093291;28;20028;-77
2023/04/21 01:34:48;;;;;;;42.92;25.67;;;7.80;99.90;;;-144.05;78.14;56880.69;5075127;28;20486;-77
2023/04/21 01:37:20;;;;;;;45.83;27.42;;;7.80;99.90;;;-144.05;78.26;56853.09;5092937;28;20161;-77
2023/04/21 01:39:53;;;;;;;48.85;26.83;;;7.80;99.90;;;-144.05;78.92;56882.81;5092622;28;20474;-77
2023/04/21 01:42:22;;;;;;;50.95;26.70;;;7.80;99.90;;;-144.05;79.49;56870.06;5093776;28;20056;-77
2023/04/21 01:44:49;;;;;;;43.70;25.55;;;7.80;99.90;;;-144.05;79.69;56895.56;5093157;28;20388;-77
2023/04/21 01:47:16;;;;;;;44.70;26.70;;;7.80;99.90;;;-144.05;79.42;56884.94;5093229;28;20506;-77
2023/04/21 01:49:42;;;;;;;48.53;27.17;;;7.80;99.90;;;-144.05;79.97;56874.31;5093049;28;20028;-77
2023/04/21 01:52:08;;;;;;;46.50;26.77;;;7.80;99.90;;;-144.05;80.16;56876.44;5091507;28;20060;-77
2023/04/21 01:54:35;;;;;;;48.58;27.27;;;7.70;99.90;;;-144.05;80.27;56882.81;5092879;28;20032;-77
2023/04/21 01:57:01;;;;;;;44.45;26.33;;;7.70;99.90;;;-144.05;80.20;56876.44;5094368;28;20035;-77
2023/04/21 01:59:27;;;;;;;50.33;26.98;;;7.70;99.90;;;-144.05;80.63;56891.31;5093703;28;20028;-78
2023/04/21 02:01:52;;;;;;;50.45;27.33;;;7.70;99.90;;;-144.05;80.61;56889.19;5093006;28;20051;-77
2023/04/21 02:04:18;;;;;;;53.55;29.13;;;7.60;99.90;;;-144.05;81.05;56887.06;5093430;28;20040;-77
2023/04/21 02:06:45;;;;;;;51.13;27.83;;;7.60;99.90;;;-144.05;81.23;56880.69;5092920;28;20052;-76
2023/04/21 02:09:10;;;;;;;45.63;26.70;;;7.70;99.90;;;-144.05;81.27;56884.94;5074079;28;20024;-75
2023/04/21 02:11:36;;;;;;;49.38;28.45;;;7.60;99.90;;;-144.05;81.35;56906.19;5092415;28;20031;-77
2023/04/21 02:14:02;;;;;;;53.72;29.00;;;7.70;99.90;;;-144.05;81.86;56874.31;5091991;28;20024;-76
2023/04/21 02:16:29;;;;;;;56.75;32.25;;;7.60;99.90;;;-144.05;82.43;56891.31;5074184;28;20452;-75
2023/04/21 02:18:56;;;;;;;54.83;31.88;;;7.60;99.90;;;-144.05;82.05;56867.94;5092738;28;20020;-77
2023/04/21 02:21:23;;;;;;;52.90;32.60;;;7.60;99.90;;;-144.05;82.64;56880.69;5092908;28;20032;-77
2023/04/21 02:23:50;;;;;;;60.80;31.38;;;7.60;99.90;;;-144.05;82.14;56906.19;5091878;28;20063;-77
2023/04/21 02:26:17;;;;;;;55.90;31.73;;;7.60;99.90;;;-144.05;82.29;56899.81;5092234;28;20387;-77
2023/04/21 02:28:43;;;;;;;58.22;32.63;;;7.60;99.90;;;-144.05;82.92;56899.81;5093122;28;20031;-76
2023/04/21 02:31:09;;;;;;;56.50;31.70;;;7.60;99.90;;;-144.05;82.68;56882.81;5092074;28;20029;-77
2023/04/21 02:33:35;;;;;;;58.38;31.27;;;7.60;99.90;;;-144.05;83.51;56891.31;5092780;28;20028;-78
2023/04/21 02:36:01;;;;;;;59.22;32.45;;;7.60;99.90;;;-144.05;83.16;56908.31;5095627;28;20042;-77
2023/04/21 02:38:27;;;;;;;54.80;30.95;;;7.60;99.90;;;-144.05;82.84;56870.06;5095295;28;20028;-76
2023/04/21 02:40:53;;;;;;;58.03;33.08;;;7.60;99.90;;;-144.05;82.72;56887.06;5096295;28;20123;-77
2023/04/21 02:43:19;;;;;;;61.17;30.83;;;7.60;99.90;;;-144.05;82.69;56891.31;5077926;28;20032;-77
2023/04/21 02:45:45;;;;;;;58.20;31.65;;;7.60;99.90;;;-144.05;82.79;56876.44;5096124;28;20505;-77
2023/04/21 02:48:11;;;;;;;59.35;32.00;;;7.60;99.90;;;-144.05;82.56;56897.69;5096080;28;20514;-76
2023/04/21 02:50:37;;;;;;;53.70;30.67;;;7.60;99.90;;;-144.05;82.72;56889.19;5095197;28;20065;-77
2023/04/21 02:53:02;;;;;;;60.58;31.30;;;7.60;99.90;;;-144.05;82.68;56880.69;5094815;28;20103;-76
2023/04/21 02:55:28;;;;;;;58.50;31.27;;;7.60;99.90;;;-144.05;82.68;56882.81;5095741;28;20407;-77
2023/04/21 02:57:54;;;;;;;53.38;31.20;;;7.60;99.90;;;-144.05;82.51;56912.56;5077232;28;20032;-77
2023/04/21 03:00:20;;;;;;;59.75;31.77;;;7.70;99.90;;;-144.05;82.53;56891.31;5095234;28;20406;-77
2023/04/21 03:02:46;;;;;;;55.33;31.23;;;7.70;99.90;;;-144.05;82.80;56889.19;5077145;28;20032;-77
2023/04/21 03:05:12;;;;;;;62.63;33.30;;;7.60;99.90;;;-144.05;83.11;56904.06;5095464;28;20039;-77
2023/04/21 03:07:38;;;;;;;60.58;31.73;;;7.60;99.90;;;-144.05;82.54;56874.31;5095677;28;20032;-77
2023/04/21 03:10:06;;;;;;;53.75;30.48;;;7.60;99.90;;;-144.05;82.51;56882.81;5093430;28;20035;-76
2023/04/21 03:12:32;;;;;;;55.17;30.77;;;7.70;99.90;;;-144.05;83.05;56912.56;5094592;28;20077;-76
2023/04/21 03:14:57;;;;;;;58.13;32.35;;;7.70;99.90;;;-144.05;82.99;56891.31;5094429;28;20073;-77
2023/04/21 03:17:24;;;;;;;56.75;31.55;;;7.70;99.90;;;-144.05;82.70;56882.81;5094944;28;20028;-77
2023/04/21 03:19:50;;;;;;;56.78;31.70;;;7.70;99.90;;;-144.05;82.26;56887.06;5094643;28;20028;-76
2023/04/21 03:22:16;;;;;;;56.78;32.38;;;7.70;99.90;;;-144.05;82.86;56876.44;5094399;28;20043;-76
2023/04/21 03:24:41;;;;;;;55.25;31.45;;;7.70;99.90;;;-144.05;82.71;56876.44;5094502;28;20418;-76
2023/04/21 03:27:07;;;;;;;54.38;30.48;;;7.70;99.90;;;-144.05;82.42;56889.19;5094932;28;20054;-77
2023/04/21 03:29:34;;;;;;;55.58;31.58;;;7.70;99.90;;;-144.05;82.21;56870.06;5094574;28;20039;-77
2023/04/21 03:32:01;;;;;;;60.70;31.67;;;7.70;99.90;;;-144.05;82.64;56891.31;5094561;28;20035;-77
2023/04/21 03:34:27;;;;;;;58.97;32.40;;;7.70;99.90;;;-144.05;82.62;56891.31;5094338;28;20116;-76
2023/04/21 03:36:52;;;;;;;58.45;31.60;;;7.70;99.90;;;-144.05;82.33;56897.69;5094738;28;20184;-77
2023/04/21 03:39:18;;;;;;;55.42;31.65;;;7.80;99.90;;;-144.05;82.11;56870.06;5094768;28;20036;-77
2023/04/21 03:41:44;;;;;;;50.90;29.73;;;7.70;99.90;;;-144.05;82.12;56878.56;5094693;28;20031;-77
2023/04/21 03:44:10;;;;;;;57.47;30.40;;;7.80;99.90;;;-144.05;82.08;56884.94;5094384;28;20100;-77
2023/04/21 03:46:36;;;;;;;50.50;30.33;;;7.80;99.90;;;-144.05;82.26;56906.19;5094207;28;20085;-77
2023/04/21 03:49:02;;;;;;;52.65;30.42;;;7.80;99.90;;;-144.05;82.25;56867.94;5093933;28;20107;-77
2023/04/21 03:51:28;;;;;;;58.97;32.25;;;7.80;99.90;;;-144.05;82.61;56878.56;5093960;28;20016;-76
2023/04/21 03:53:54;;;;;;;55.38;30.80;;;7.80;99.90;;;-144.05;82.74;56891.31;5094770;28;20490;-77
2023/04/21 03:56:19;;;;;;;58.95;32.40;;;7.80;99.90;;;-144.05;82.67;56880.69;5094816;28;20114;-77
2023/04/21 03:58:45;;;;;;;54.17;30.30;;;7.70;99.90;;;-144.05;82.67;56908.31;5075474;28;20035;-77
2023/04/21 04:01:11;;;;;;;58.00;32.47;;;7.70;99.90;;;-144.05;82.99;56874.31;5094513;28;20020;-77
2023/04/21 04:03:37;;;;;;;57.75;33.08;;;7.70;99.90;;;-144.05;82.84;56893.44;5114937;22;20035;-74
2023/04/21 04:06:03;;;;;;;62.08;32.88;;;7.70;99.90;;;-144.05;82.72;56901.94;5072854;28;20052;-76
2023/04/21 04:08:30;;;;;;;55.15;31.55;;;7.70;99.90;;;-144.05;82.95;56878.56;5071583;28;20027;-77
2023/04/21 04:10:55;;;;;;;55.50;31.73;;;7.60;99.90;;;-144.05;83.15;56867.94;5073029;28;20028;-77
2023/04/21 04:13:23;;;;;;;61.97;32.17;;;7.60;99.90;;;-144.05;83.41;56859.47;5055076;28;20553;-77
2023/04/21 04:15:49;;;;;;;59.33;31.67;;;7.70;99.90;;;-144.05;83.47;56878.56;5092975;28;20032;-77
2023/04/21 04:18:15;;;;;;;60.63;32.65;;;7.70;99.90;;;-144.05;83.59;56884.94;5091782;28;20038;-76
2023/04/21 04:20:40;;;;;;;56.90;30.25;;;7.70;99.90;;;-144.05;83.21;56889.19;5092840;28;20032;-76
2023/04/21 04:23:07;;;;;;;55.65;31.65;;;7.70;99.90;;;-144.05;83.45;56904.06;5092795;28;20031;-75
2023/04/21 04:25:33;;;;;;;58.67;32.60;;;7.70;99.90;;;-144.05;83.76;56882.81;5091459;28;20173;-75
2023/04/21 04:27:59;;;;;;;58.17;32.05;;;7.70;99.90;;;-144.05;83.77;56884.94;5092760;28;20126;-76
2023/04/21 04:30:27;;;;;;;60.67;32.60;;;7.70;99.90;;;-144.05;83.79;56895.56;5093267;28;20020;-75
2023/04/21 04:32:53;;;;;;;56.03;31.35;;;7.70;99.90;;;-144.05;83.72;56891.31;5093080;28;20032;-76
2023/04/21 04:35:19;;;;;;;60.80;32.45;;;7.70;99.90;;;-144.05;83.80;56876.44;5093094;28;20543;-75
2023/04/21 04:37:45;;;;;;;56.90;32.30;;;7.80;99.90;;;-144.05;83.99;56884.94;5095215;28;20479;-76
2023/04/21 04:40:12;;;;;;;68.13;34.30;;;7.80;99.90;;;-144.05;84.15;56889.19;5094992;28;20375;-75
2023/04/21 04:42:38;;;;;;;60.50;34.45;;;7.80;99.90;;;-144.05;84.31;56882.81;5093635;28;20031;-76
2023/04/21 04:45:10;;;;;;;58.60;32.58;;;7.80;99.90;;;-144.05;84.07;56889.19;5094865;28;20024;-76
2023/04/21 04:47:36;;;;;;;61.45;31.92;;;7.80;99.90;;;-144.05;84.24;56882.81;5094788;28;20024;-76
2023/04/21 04:50:04;;;;;;;62.78;34.65;;;7.80;99.90;;;-144.05;83.91;56887.06;5092937;28;20028;-76
2023/04/21 04:52:30;;;;;;;61.92;33.08;;;7.80;99.90;;;-144.05;84.18;56861.56;5094790;28;20049;-74
2023/04/21 04:54:56;;;;;;;63.22;35.40;;;7.90;99.90;;;-144.05;84.42;56872.19;5099066;28;20445;-75
2023/04/21 04:57:22;;;;;;;62.22;33.75;;;7.90;99.90;;;-144.05;84.36;56874.31;5100094;28;20059;-76
2023/04/21 04:59:48;;;;;;;67.68;36.38;;;8.00;99.90;;;-144.05;84.23;56882.81;5095498;28;20074;-76
2023/04/21 05:02:14;;;;;;;62.60;34.92;;;7.90;99.90;;;-144.05;84.31;56901.94;5094304;28;20391;-76
2023/04/21 05:04:40;;;;;;;58.58;32.50;;;8.00;99.90;;;-144.05;84.52;56882.81;5094078;28;20024;-76
2023/04/21 05:07:06;;;;;;;65.15;34.90;;;8.00;99.90;;;-144.05;84.26;56897.69;5092481;28;20031;-76
2023/04/21 05:09:33;;;;;;;60.13;34.08;;;8.00;99.90;;;-144.05;84.47;56895.56;5076280;28;20024;-76
2023/04/21 05:12:00;;;;;;;57.95;31.35;;;8.00;99.90;;;-144.05;84.38;56863.69;5093510;28;20020;-76
2023/04/21 05:14:26;;;;;;;61.83;34.05;;;8.00;99.90;;;-144.05;84.69;56884.94;5094851;28;20043;-76
2023/04/21 05:16:52;;;;;;;65.70;35.40;;;8.10;99.90;;;-144.05;84.88;56887.06;5095526;28;20040;-76
2023/04/21 05:19:18;;;;;;;61.47;34.85;;;8.10;99.90;;;-144.05;84.69;56882.81;5095583;28;20024;-76
2023/04/21 05:21:44;;;;;;;65.80;36.33;;;8.10;99.90;;;-144.05;84.99;56874.31;5094253;28;20136;-76
2023/04/21 05:24:10;;;;;;;60.08;34.58;;;8.20;99.90;;;-144.05;84.44;56880.69;5094520;28;20506;-75
2023/04/21 05:26:35;;;;;;;67.60;37.33;;;8.20;99.90;;;-144.05;84.75;56882.81;5095116;28;20365;-76
2023/04/21 05:29:02;;;;;;;66.97;35.90;;;8.20;99.90;;;-144.05;84.82;56889.19;5076589;28;20035;-76
2023/04/21 05:31:28;;;;;;;66.82;36.65;;;8.20;99.90;;;-144.05;85.01;56904.06;5094524;28;20035;-76
2023/04/21 05:33:54;;;;;;;60.90;35.50;;;8.30;99.90;;;-144.05;84.67;56895.56;5093928;28;20369;-76
2023/04/21 05:36:19;;;;;;;70.32;37.42;;;8.30;99.90;;;-144.05;84.67;56872.19;5094669;28;20032;-76
2023/04/21 05:38:46;;;;;;;64.88;35.55;;;8.40;99.90;;;-144.05;84.73;56887.06;5094643;28;20039;-77
2023/04/21 05:41:12;;;;;;;68.22;36.63;;;8.40;99.90;;;-144.05;84.64;56891.31;5096042;28;20031;-76
2023/04/21 05:43:37;;;;;;;65.03;36.35;;;8.40;99.90;;;-144.05;84.62;56889.19;5094748;28;20108;-76
2023/04/21 05:46:09;;;;;;;62.53;35.88;;;8.40;99.90;;;-144.05;84.42;56887.06;5095434;28;20035;-76
2023/04/21 05:48:36;;;;;;;73.18;37.95;;;8.40;99.90;;;-144.05;84.18;56880.69;5095515;28;20027;-77
2023/04/21 05:51:14;;;;;;;62.88;35.97;;;8.40;99.90;;;-144.05;84.63;56889.19;5094634;28;20020;-77
2023/04/21 05:53:42;;;;;;;62.90;36.20;;;8.50;99.90;;;-144.05;84.52;56889.19;5076530;28;20028;-76
2023/04/21 05:56:09;;;;;;;66.70;36.33;;;8.50;99.90;;;-144.05;84.30;56904.06;5076731;28;20061;-76
2023/04/21 05:58:37;;;;;;;71.38;39.38;;;8.50;99.90;;;-144.05;84.40;56865.81;5094689;28;20501;-76
2023/04/21 06:01:05;;;;;;;69.50;38.53;;;8.50;99.90;;;-144.05;84.42;56891.31;5093523;28;20054;-76
2023/04/21 06:03:32;;;;;;;64.15;38.28;;;8.60;99.90;;;-144.05;84.09;56895.56;5095690;28;20095;-76
2023/04/21 06:06:03;;;;;;;66.55;36.35;;;8.60;99.90;;;-144.05;83.83;56874.31;5095962;28;20032;-75
2023/04/21 06:08:29;;;;;;;63.58;36.50;;;8.60;99.90;;;-144.05;83.82;56882.81;5095663;28;20101;-78
2023/04/21 06:10:55;;;;;;;62.35;37.47;;;8.80;99.90;;;-144.05;83.68;56876.44;5099154;28;20077;-78
2023/04/21 06:13:21;;;;;;;66.15;37.13;;;8.80;99.90;;;-144.05;83.59;56876.44;5099734;28;20498;-75
2023/04/21 06:15:47;;;;;;;58.47;35.50;;;8.90;99.90;;;-144.05;83.01;56870.06;5101083;28;20054;-75
2023/04/21 06:18:12;;;;;;;64.30;34.65;;;9.00;99.90;;;-144.05;83.10;56884.94;5100361;28;20043;-76
2023/04/21 06:20:39;;;;;;;55.85;32.47;;;9.00;99.90;;;-144.05;82.64;56884.94;5100596;28;20047;-76
2023/04/21 06:23:05;;;;;;;58.60;34.22;;;9.00;99.90;;;-144.05;82.57;56872.19;5082121;28;20032;-75
2023/04/21 06:25:31;;;;;;;60.50;34.55;;;9.10;99.90;;;-144.05;82.34;56884.94;5099049;28;20043;-75
2023/04/21 06:27:57;;;;;;;53.25;32.00;;;9.10;99.90;;;-144.05;81.69;56878.56;5099739;28;20387;-75
2023/04/21 06:30:23;;;;;;;56.30;33.75;;;9.10;99.90;;;-144.05;81.66;56878.56;5099648;28;20052;-76
2023/04/21 06:32:49;;;;;;;56.60;33.92;;;9.20;99.90;;;-144.05;81.25;56895.56;5099424;28;20127;-75
2023/04/21 06:35:16;;;;;;;59.22;34.42;;;9.30;99.90;;;-144.05;81.62;56874.31;5099394;28;20380;-76
2023/04/21 06:37:42;;;;;;;56.92;33.50;;;9.30;99.90;;;-144.05;81.28;56863.69;5096619;28;20372;-75
2023/04/21 06:40:08;;;;;;;52.47;32.45;;;9.40;99.90;;;-144.05;80.54;56891.31;5098290;28;20031;-77
2023/04/21 06:42:34;;;;;;;53.92;33.20;;;9.40;99.90;;;-144.05;80.84;56870.06;5081418;28;20028;-77
2023/04/21 06:45:00;;;;;;;53.92;33.30;;;9.50;99.90;;;-144.05;80.79;56872.19;5101119;28;20032;-76
2023/04/21 06:47:26;;;;;;;55.75;32.35;;;9.60;99.90;;;-144.05;79.67;56870.06;5097631;28;20077;-76
2023/04/21 06:49:52;;;;;;;52.20;31.27;;;9.70;99.90;;;-144.05;79.50;56855.22;5096392;28;20399;-76
2023/04/21 06:52:17;;;;;;;49.70;30.10;;;9.80;99.90;;;-144.05;79.00;56880.69;5098196;28;20051;-75
2023/04/21 06:54:43;;;;;;;52.78;31.17;;;9.90;99.90;;;-144.05;78.30;56893.44;5098068;28;20526;-77
2023/04/21 06:57:09;;;;;;;49.00;29.90;;;10.00;99.90;;;-144.05;77.96;56865.81;5096616;28;20078;-77
2023/04/21 06:59:35;;;;;;;48.60;29.83;;;10.00;99.90;;;-144.05;77.02;56874.31;5097703;28;20051;-75
2023/04/21 07:02:01;;;;;;;47.22;29.90;;;10.10;99.90;;;-144.05;76.69;56887.06;5097812;28;20024;-76
2023/04/21 07:04:30;;;;;;;44.50;29.25;;;10.20;99.90;;;-144.05;75.80;56878.56;5095548;28;20036;-75
2023/04/21 07:06:57;;;;;;;44.30;28.45;;;10.30;99.90;;;-144.05;75.72;56880.69;5096259;28;20020;-77
2023/04/21 07:09:22;;;;;;;45.28;28.63;;;10.40;99.90;;;-144.05;74.81;56863.69;5094980;28;20023;-77
2023/04/21 07:11:48;;;;;;;45.28;27.65;;;10.50;99.90;;;-144.05;74.71;56865.81;5097145;28;20486;-77
2023/04/21 07:14:14;;;;;;;42.38;27.63;;;10.50;99.90;;;-144.05;75.09;56865.81;5096508;28;20487;-77
2023/04/21 07:16:40;;;;;;;44.40;28.38;;;10.40;99.90;;;-144.05;75.42;56848.84;5096600;28;20028;-77
2023/04/21 07:19:06;;;;;;;44.38;27.48;;;10.40;99.90;;;-144.05;74.42;56874.31;5096282;28;20526;-76
2023/04/21 07:21:35;;;;;;;43.10;27.30;;;10.50;99.90;;;-144.05;74.41;56884.94;5096262;28;20314;-76
2023/04/21 07:24:02;;;;;;;45.10;28.90;;;10.60;99.90;;;-144.05;74.12;56844.59;5094627;28;20020;-75
2023/04/21 07:26:28;;;;;;;39.30;26.67;;;10.60;99.90;;;-144.05;73.88;56880.69;5096174;28;20028;-76
2023/04/21 07:28:57;;;;;;;42.83;26.63;;;10.60;99.90;;;-144.05;72.86;56910.44;5097354;28;20149;-76
2023/04/21 07:31:24;;;;;;;40.45;26.08;;;10.60;99.90;;;-144.05;73.60;56874.31;5097535;28;20020;-75
2023/04/21 07:33:50;;;;;;;43.92;27.42;;;10.60;99.90;;;-144.05;73.22;56880.69;5096145;28;20032;-77
2023/04/21 07:36:16;;;;;;;40.42;26.35;;;10.60;99.90;;;-144.05;72.75;56893.44;5098546;28;20031;-77
2023/04/21 07:38:43;;;;;;;41.13;25.83;;;10.60;99.90;;;-144.05;74.61;56884.94;5097846;28;20028;-75
2023/04/21 07:41:12;;;;;;;41.28;26.95;;;10.50;99.90;;;-144.05;74.22;56891.31;5098333;28;20040;-76
2023/04/21 07:43:39;;;;;;;43.92;27.90;;;10.50;99.90;;;-144.05;73.96;56876.44;5097798;28;20024;-77
2023/04/21 07:46:06;;;;;;;43.78;26.65;;;10.50;99.90;;;-144.05;73.82;56865.81;5098080;28;20075;-77
2023/04/21 07:48:32;;;;;;;40.15;26.55;;;10.50;99.90;;;-144.05;74.39;56874.31;5097737;28;20052;-76
2023/04/21 07:50:59;;;;;;;41.75;26.70;;;10.40;99.90;;;-144.05;74.91;56891.31;5095852;28;20024;-75
2023/04/21 07:53:26;;;;;;;46.45;28.17;;;10.40;99.90;;;-144.05;75.26;56872.19;5095387;28;20028;-77
2023/04/21 07:55:53;;;;;;;42.45;28.30;;;10.40;99.90;;;-144.05;74.28;56867.94;5077352;28;20039;-76
2023/04/21 07:58:20;;;;;;;45.35;29.55;;;10.50;99.90;;;-144.05;74.53;56870.06;5095108;28;20399;-75
2023/04/21 08:00:46;;;;;;;44.72;28.15;;;10.60;99.90;;;-144.05;73.92;56880.69;5095686;28;20036;-75
2023/04/21 08:03:12;;;;;;;42.17;26.52;;;10.70;99.90;;;-144.05;73.88;56893.44;5094402;28;20495;-75
2023/04/21 08:05:38;;;;;;;39.35;25.88;;;10.80;99.90;;;-144.05;73.08;56895.56;5094292;28;20100;-75
2023/04/21 08:08:04;;;;;;;43.55;27.88;;;10.80;99.90;;;-144.05;72.73;56870.06;5094392;28;20050;-77
2023/04/21 08:10:30;;;;;;;42.55;26.67;;;10.90;99.90;;;-144.05;72.14;56859.47;5094259;28;20028;-75
2023/04/21 08:12:56;;;;;;;39.85;26.85;;;10.90;99.90;;;-144.05;71.67;56876.44;5093958;28;20032;-76
2023/04/21 08:15:22;;;;;;;39.10;27.08;;;10.90;99.90;;;-144.05;72.24;56878.56;5094097;28;20077;-77
2023/04/21 08:17:48;;;;;;;43.90;27.23;;;10.90;99.90;;;-144.05;71.90;56874.31;5075454;28;20020;-76
2023/04/21 08:20:14;;;;;;;43.47;25.90;;;11.10;99.90;;;-144.05;71.04;56870.06;5093286;28;20676;-78
2023/04/21 08:22:40;;;;;;;41.08;25.27;;;11.20;99.90;;;-144.05;71.01;56895.56;5092408;28;20506;-76
2023/04/21 08:25:07;;;;;;;44.65;26.90;;;11.20;99.90;;;-144.05;70.38;56899.81;5093679;28;20024;-77
2023/04/21 08:27:36;;;;;;;43.83;26.75;;;11.30;99.90;;;-144.05;71.14;56865.81;5095344;28;20051;-77
2023/04/21 08:30:02;;;;;;;40.92;26.30;;;11.50;99.90;;;-144.05;71.05;56863.69;5094548;28;20024;-76
2023/04/21 08:32:27;;;;;;;41.08;25.02;;;11.60;99.90;;;-144.05;69.89;56880.69;5093127;28;20055;-76
2023/04/21 08:34:54;;;;;;;37.47;25.33;;;11.60;99.90;;;-144.05;70.61;56870.06;5094646;28;20416;-76
2023/04/21 08:37:21;;;;;;;39.13;26.15;;;11.50;99.90;;;-144.05;71.32;56876.44;5094894;28;20107;-68
2023/04/21 08:39:52;;;;;;;48.00;26.77;;;11.50;99.90;;;-144.05;70.71;56863.69;5094695;28;20032;-77
2023/04/21 08:42:19;;;;;;;38.40;23.42;;;11.50;99.90;;;-144.05;70.41;56867.94;5094412;28;20081;-77
2023/04/21 08:44:46;;;;;;;40.97;25.13;;;11.50;99.90;;;-144.05;70.25;56850.97;5092878;28;20028;-77
2023/04/21 08:47:14;;;;;;;40.72;25.48;;;11.50;99.90;;;-144.05;70.27;56901.94;5093319;28;20126;-77
2023/04/21 08:49:43;;;;;;;36.78;24.30;;;11.50;99.90;;;-144.05;70.04;56878.56;5094440;28;20494;-77
2023/04/21 08:52:13;;;;;;;42.05;25.02;;;11.60;99.90;;;-144.05;70.43;56859.47;5095166;28;20034;-77
2023/04/21 08:54:40;;;;;;;40.45;26.08;;;11.50;99.90;;;-144.05;70.77;56895.56;5076703;28;20407;-77
2023/04/21 08:57:06;;;;;;;42.28;25.83;;;11.40;99.90;;;-144.05;70.97;56895.56;5095325;28;20475;-75
2023/04/21 08:59:32;;;;;;;37.83;25.65;;;11.40;99.90;;;-144.05;70.89;56867.94;5094582;28;20056;-76
2023/04/21 09:02:14;;;;;;;41.78;26.98;;;11.50;99.90;;;-144.05;71.55;56904.06;5094268;28;20047;-77
2023/04/21 09:04:50;;;;;;;39.10;25.20;;;11.40;99.90;;;-144.05;70.90;56865.81;5094030;28;20028;-75
2023/04/21 09:07:38;;;;;;;42.20;26.05;;;11.50;99.90;;;-144.05;70.98;56874.31;5075297;28;20481;-75
2023/04/21 09:10:06;;;;;;;41.20;25.15;;;11.60;99.90;;;-144.05;70.36;56882.81;5093609;28;20048;-75
2023/04/21 09:12:32;;;;;;;40.75;26.42;;;11.80;99.90;;;-144.05;69.46;56884.94;5093460;28;20024;-75
2023/04/21 09:14:59;;;;;;;40.05;26.27;;;11.90;99.90;;;-144.05;69.17;56865.81;5094283;28;20038;-77
2023/04/21 09:17:32;;;;;;;42.00;24.83;;;12.00;99.90;;;-144.05;68.22;56912.56;5093858;28;20081;-76
2023/04/21 09:20:21;;;;;;;38.30;25.23;;;12.20;99.90;;;-144.05;67.84;56880.69;5094337;28;20032;-76
2023/04/21 09:22:50;;;;;;;43.03;24.00;;;12.30;99.90;;;-144.05;67.34;56889.19;5095974;28;20028;-76
2023/04/21 09:25:21;;;;;;;37.42;23.42;;;12.40;99.90;;;-144.05;68.18;56872.19;5095187;28;20032;-76
2023/04/21 09:27:47;;;;;;;39.03;24.15;;;12.40;99.90;;;-144.05;67.20;56861.56;5094950;28;20024;-76
2023/04/21 09:30:19;;;;;;;35.67;23.30;;;12.50;99.90;;;-144.05;66.87;56865.81;5095921;28;20451;-75
2023/04/21 09:32:45;;;;;;;42.47;23.98;;;12.60;99.90;;;-144.05;66.50;56855.22;5096945;28;20024;-77
2023/04/21 09:35:11;;;;;;;40.13;24.80;;;12.60;99.90;;;-144.05;66.17;56878.56;5096225;28;20035;-75
2023/04/21 09:37:41;;;;;;;34.22;21.95;;;12.60;99.90;;;-144.05;66.59;56891.31;5094682;28;20478;-75
2023/04/21 09:40:13;;;;;;;40.55;23.38;;;12.60;99.90;;;-144.05;66.37;56887.06;5094570;28;20046;-78
2023/04/21 09:42:40;;;;;;;39.88;25.13;;;12.60;99.90;;;-144.05;66.03;56870.06;5095096;28;20110;-74
2023/04/21 09:45:09;;;;;;;39.13;23.77;;;12.60;99.90;;;-144.05;66.06;56876.44;5093806;28;20042;-75
2023/04/21 09:47:41;;;;;;;34.40;23.92;;;12.80;99.90;;;-144.05;65.22;56880.69;5093752;28;20024;-74
2023/04/21 09:50:11;;;;;;;35.72;23.08;;;12.80;99.90;;;-144.05;65.11;56889.19;5075120;28;20032;-75
2023/04/21 09:52:40;;;;;;;34.65;23.30;;;12.80;99.90;;;-144.05;64.61;56870.06;5093369;28;20016;-75
2023/04/21 09:55:12;;;;;;;34.33;23.55;;;13.00;99.90;;;-144.05;64.79;56878.56;5074732;28;20171;-75
2023/04/21 09:57:42;;;;;;;36.17;22.75;;;13.10;99.90;;;-144.05;64.93;56855.22;5093997;28;20028;-78